Rorichmoor — V2BV7 — position and weather

sailwx.info

Track history (hours):
 
Tides and Currents Weather Stations Pressure Air Temp Water Temp Dewpoint Dewpoint Depression Visibility Wind Speed Wind Dir Waves Ship Positions

Rorichmoor

Last reported at 2017-Feb-22 07:16 UTC. Time now 2017-Feb-22 15:16 UTC.
Position N 40°27' E 017°11'.

Length 80 m; draft 3 m.

Type: Cargo ship. MMSI: 304938000.

Date/timePositionNaut miles runAvg speedWind from/ knotsBaromVisibWave heightAir tempDewpointWater temp
2017-Feb-22 07:16N 40°27' E 017°11'0 0.0
2017-Feb-22 06:31N 40°27' E 017°11'0 0.0
2017-Feb-22 05:31N 40°27' E 017°11'0 0.0
2017-Feb-22 04:31N 40°27' E 017°11'0 0.0
2017-Feb-22 03:31N 40°27' E 017°11'0 0.0
2017-Feb-22 02:31N 40°27' E 017°11'0 0.1
2017-Feb-22 01:31N 40°28' E 017°11'0 0.0
2017-Feb-22 00:31N 40°27' E 017°11'0 0.0
2017-Feb-21 23:31N 40°28' E 017°11'0 0.0
2017-Feb-21 22:31N 40°28' E 017°11'0 0.0
2017-Feb-21 21:31N 40°28' E 017°11'0 0.0
2017-Feb-21 20:31N 40°28' E 017°11'0 0.0
2017-Feb-21 19:31N 40°28' E 017°11'0 0.1
2017-Feb-21 18:31N 40°28' E 017°11'0 0.0
2017-Feb-21 17:28N 40°28' E 017°11'0 0.0
2017-Feb-21 16:31N 40°28' E 017°11'0 0.0
2017-Feb-21 15:31N 40°28' E 017°11'0 0.0
2017-Feb-21 14:31N 40°28' E 017°11'0 0.0
2017-Feb-21 13:31N 40°28' E 017°11'0 0.0
2017-Feb-21 12:31N 40°28' E 017°11'0 0.0
2017-Feb-21 11:31N 40°28' E 017°11'0 0.0
2017-Feb-21 10:31N 40°28' E 017°11'0 0.0
2017-Feb-21 09:31N 40°28' E 017°11'0 0.0
2017-Feb-21 08:31N 40°27' E 017°11'0 0.0
2017-Feb-21 07:31N 40°27' E 017°11'0 0.1
2017-Feb-21 06:34N 40°27' E 017°11'5 5.4
2017-Feb-21 05:33N 40°22' E 017°08'5 4.8
2017-Feb-21 04:33N 40°18' E 017°09'5 5.4
2017-Feb-21 03:33N 40°12' E 017°10'154 6.4
2017-Feb-20 03:24N 37°52' E 015°48'8 9.5
2017-Feb-20 02:33N 37°56' E 015°39'1010.0
2017-Feb-20 01:34N 38°05' E 015°33'1010.3
2017-Feb-20 00:33N 38°15' E 015°37'6 6.3
2017-Feb-19 23:33N 38°21' E 015°34'1110.5
2017-Feb-19 22:32N 38°26' E 015°23'54110.4
2017-Feb-17 18:33N 42°51' E 005°01'2110.5
2017-Feb-17 16:33N 43°01' E 004°36'2210.8
2017-Feb-17 14:33N 43°11' E 004°10'  
Track history (hours):
 
Tides and Currents Weather Stations Pressure Air Temp Water Temp Dewpoint Dewpoint Depression Visibility Wind Speed Wind Dir Waves Ship Positions

Rorichmoor

Last reported at 2017-Feb-22 07:16 UTC. Time now 2017-Feb-22 15:16 UTC.
Position N 40°27' E 017°11'.

Length 80 m; draft 3 m.

Type: Cargo ship. MMSI: 304938000.

Date/timePositionNaut miles runAvg speedWind from/ knotsBaromVisibWave heightAir tempDewpointWater temp
2017-Feb-22 07:16N 40°27' E 017°11'0 0.0
2017-Feb-22 06:31N 40°27' E 017°11'0 0.0
2017-Feb-22 05:31N 40°27' E 017°11'0 0.0
2017-Feb-22 04:31N 40°27' E 017°11'0 0.0
2017-Feb-22 03:31N 40°27' E 017°11'0 0.0
2017-Feb-22 02:31N 40°27' E 017°11'0 0.1
2017-Feb-22 01:31N 40°28' E 017°11'0 0.0
2017-Feb-22 00:31N 40°27' E 017°11'0 0.0
2017-Feb-21 23:31N 40°28' E 017°11'0 0.0
2017-Feb-21 22:31N 40°28' E 017°11'0 0.0
2017-Feb-21 21:31N 40°28' E 017°11'0 0.0
2017-Feb-21 20:31N 40°28' E 017°11'0 0.0
2017-Feb-21 19:31N 40°28' E 017°11'0 0.1
2017-Feb-21 18:31N 40°28' E 017°11'0 0.0
2017-Feb-21 17:28N 40°28' E 017°11'0 0.0
2017-Feb-21 16:31N 40°28' E 017°11'0 0.0
2017-Feb-21 15:31N 40°28' E 017°11'0 0.0
2017-Feb-21 14:31N 40°28' E 017°11'0 0.0
2017-Feb-21 13:31N 40°28' E 017°11'0 0.0
2017-Feb-21 12:31N 40°28' E 017°11'0 0.0
2017-Feb-21 11:31N 40°28' E 017°11'0 0.0
2017-Feb-21 10:31N 40°28' E 017°11'0 0.0
2017-Feb-21 09:31N 40°28' E 017°11'0 0.0
2017-Feb-21 08:31N 40°27' E 017°11'0 0.0
2017-Feb-21 07:31N 40°27' E 017°11'0 0.1
2017-Feb-21 06:34N 40°27' E 017°11'5 5.4
2017-Feb-21 05:33N 40°22' E 017°08'5 4.8
2017-Feb-21 04:33N 40°18' E 017°09'5 5.4
2017-Feb-21 03:33N 40°12' E 017°10'154 6.4
2017-Feb-20 03:24N 37°52' E 015°48'8 9.5
2017-Feb-20 02:33N 37°56' E 015°39'1010.0
2017-Feb-20 01:34N 38°05' E 015°33'1010.3
2017-Feb-20 00:33N 38°15' E 015°37'6 6.3
2017-Feb-19 23:33N 38°21' E 015°34'1110.5
2017-Feb-19 22:32N 38°26' E 015°23'54110.4
2017-Feb-17 18:33N 42°51' E 005°01'2110.5
2017-Feb-17 16:33N 43°01' E 004°36'2210.8
2017-Feb-17 14:33N 43°11' E 004°10'  

Dump ship's entire track history